createdAt,value
2019-03-18T00:00:27.082Z,0
2019-03-18T00:01:27.058Z,0
2019-03-18T00:02:27.038Z,0
2019-03-18T00:03:27.027Z,0
2019-03-18T00:04:27.011Z,0
2019-03-18T00:05:26.995Z,0
2019-03-18T00:06:26.981Z,0
2019-03-18T00:07:26.964Z,0
2019-03-18T00:08:26.705Z,0
2019-03-18T00:09:26.926Z,0
2019-03-18T00:10:26.931Z,0
2019-03-18T00:11:26.893Z,0
2019-03-18T00:12:26.902Z,0
2019-03-18T00:13:26.676Z,0
2019-03-18T00:14:26.837Z,0
2019-03-18T00:15:26.591Z,0
2019-03-18T00:16:26.803Z,0
2019-03-18T00:17:26.548Z,0
2019-03-18T00:18:26.772Z,0
2019-03-18T00:19:26.503Z,0
2019-03-18T00:20:26.494Z,0
2019-03-18T00:21:26.477Z,0
2019-03-18T00:22:26.701Z,0
2019-03-18T00:23:26.443Z,0
2019-03-18T00:24:26.673Z,0
2019-03-18T00:25:26.662Z,0
2019-03-18T00:26:26.426Z,0
2019-03-18T00:27:26.620Z,0
2019-03-18T00:28:26.597Z,0
2019-03-18T00:29:26.583Z,0
2019-03-18T00:30:26.568Z,0
2019-03-18T00:31:26.324Z,0
2019-03-18T00:32:26.290Z,0
2019-03-18T00:33:26.524Z,0
2019-03-18T00:34:25.999Z,0
2019-03-18T00:35:26.239Z,0
2019-03-18T00:36:26.461Z,0
2019-03-18T00:37:26.214Z,0
2019-03-18T00:38:26.469Z,0
2019-03-18T00:39:26.408Z,0
2019-03-18T00:40:26.403Z,0
2019-03-18T00:41:26.376Z,0
2019-03-18T00:42:26.116Z,0
2019-03-18T00:43:26.339Z,0
2019-03-18T00:44:26.082Z,0
2019-03-18T00:45:26.309Z,0
2019-03-18T00:46:26.291Z,0
2019-03-18T00:47:26.278Z,0
2019-03-18T00:48:26.258Z,0
2019-03-18T00:49:25.989Z,0
2019-03-18T00:50:26.220Z,0
2019-03-18T00:51:26.205Z,0
2019-03-18T00:52:26.189Z,0
2019-03-18T00:53:25.914Z,0
2019-03-18T00:54:26.150Z,0
2019-03-18T00:55:26.127Z,0
2019-03-18T00:56:26.118Z,0
2019-03-18T00:57:26.096Z,0
2019-03-18T00:58:26.082Z,0
2019-03-18T00:59:26.078Z,0
2019-03-18T01:00:26.051Z,0
2019-03-18T01:01:26.029Z,0
2019-03-18T01:02:25.767Z,0
2019-03-18T01:03:25.996Z,0
2019-03-18T01:04:25.987Z,0
2019-03-18T01:05:25.966Z,0
2019-03-18T01:06:25.951Z,0
2019-03-18T01:07:25.920Z,0
2019-03-18T01:08:25.982Z,0
2019-03-18T01:09:25.935Z,0
2019-03-18T01:10:25.868Z,0
2019-03-18T01:11:25.886Z,0
2019-03-18T01:12:25.865Z,0
2019-03-18T01:13:25.818Z,0
2019-03-18T01:14:25.806Z,0
2019-03-18T01:15:35.136Z,0
2019-03-18T01:16:25.776Z,0
2019-03-18T01:17:25.771Z,0
2019-03-18T01:18:25.251Z,0
2019-03-18T01:19:25.714Z,0
2019-03-18T01:20:25.712Z,0
2019-03-18T01:21:25.676Z,0
2019-03-18T01:22:25.670Z,0
2019-03-18T01:23:25.649Z,0
2019-03-18T01:24:25.629Z,0
2019-03-18T01:25:25.629Z,0
2019-03-18T01:26:25.348Z,0
2019-03-18T01:27:27.885Z,0
2019-03-18T01:28:25.563Z,0
2019-03-18T01:29:25.543Z,0
2019-03-18T01:30:25.543Z,0
2019-03-18T01:31:25.502Z,0
2019-03-18T01:32:25.241Z,0
2019-03-18T01:33:25.533Z,0
2019-03-18T01:34:25.451Z,0
2019-03-18T01:35:25.434Z,0
2019-03-18T01:36:25.425Z,0
2019-03-18T01:37:25.417Z,0
2019-03-18T01:38:24.898Z,0
2019-03-18T01:39:25.119Z,0
2019-03-18T01:40:25.351Z,0
2019-03-18T01:41:25.325Z,0
2019-03-18T01:42:25.310Z,0
2019-03-18T01:43:25.052Z,0
2019-03-18T01:44:25.275Z,0
2019-03-18T01:45:25.012Z,0
2019-03-18T01:46:25.251Z,0
2019-03-18T01:47:25.233Z,0
2019-03-18T01:48:25.211Z,0
2019-03-18T01:49:25.218Z,0
2019-03-18T01:50:24.933Z,0
2019-03-18T01:51:25.155Z,0
2019-03-18T01:52:25.137Z,0
2019-03-18T01:53:25.118Z,0
2019-03-18T01:54:25.099Z,0
2019-03-18T01:55:24.834Z,0
2019-03-18T01:56:25.065Z,0
2019-03-18T01:57:25.058Z,0
2019-03-18T01:58:25.030Z,0
2019-03-18T01:59:25.013Z,0
2019-03-18T02:00:24.767Z,0
2019-03-18T02:01:24.738Z,0
2019-03-18T02:02:24.986Z,0
2019-03-18T02:03:24.954Z,0
2019-03-18T02:04:24.930Z,0
2019-03-18T02:05:24.739Z,0
2019-03-18T02:06:24.898Z,0
2019-03-18T02:07:24.636Z,0
2019-03-18T02:08:24.609Z,0
2019-03-18T02:09:24.837Z,0
2019-03-18T02:10:24.827Z,0
2019-03-18T02:11:24.808Z,0
2019-03-18T02:12:24.785Z,0
2019-03-18T02:13:24.772Z,0
2019-03-18T02:14:24.753Z,0
2019-03-18T02:15:24.737Z,0
2019-03-18T02:16:24.220Z,0
2019-03-18T02:17:24.734Z,0
2019-03-18T02:18:24.446Z,0
2019-03-18T02:19:24.415Z,0
2019-03-18T02:20:27.030Z,0
2019-03-18T02:21:24.626Z,0
2019-03-18T02:22:24.621Z,0
2019-03-18T02:23:24.353Z,0
2019-03-18T02:24:24.360Z,0
2019-03-18T02:25:24.569Z,0
2019-03-18T02:26:24.546Z,0
2019-03-18T02:27:24.522Z,0
2019-03-18T02:28:24.513Z,0
2019-03-18T02:29:24.485Z,0
2019-03-18T02:30:24.493Z,0
2019-03-18T02:31:24.474Z,0
2019-03-18T02:32:24.488Z,0
2019-03-18T02:33:24.232Z,0
2019-03-18T02:34:24.413Z,0
2019-03-18T02:35:24.384Z,0
2019-03-18T02:36:24.384Z,0
2019-03-18T02:37:24.358Z,0
2019-03-18T02:38:24.334Z,0
2019-03-18T02:39:24.334Z,0
2019-03-18T02:40:24.311Z,0
2019-03-18T02:41:24.288Z,0
2019-03-18T02:42:24.266Z,0
2019-03-18T02:43:24.256Z,0
2019-03-18T02:44:24.244Z,0
2019-03-18T02:45:27.271Z,0
2019-03-18T02:46:24.063Z,0
2019-03-18T02:47:24.194Z,0
2019-03-18T02:48:24.159Z,0
2019-03-18T02:49:24.149Z,0
2019-03-18T02:50:24.119Z,0
2019-03-18T02:51:24.101Z,0
2019-03-18T02:52:24.147Z,0
2019-03-18T02:53:24.071Z,0
2019-03-18T02:54:24.079Z,0
2019-03-18T02:55:24.044Z,0
2019-03-18T02:56:24.022Z,0
2019-03-18T02:57:24.005Z,0
2019-03-18T02:58:24.000Z,0
2019-03-18T02:59:23.961Z,0
2019-03-18T03:00:23.969Z,0
2019-03-18T03:01:23.917Z,0
2019-03-18T03:02:23.916Z,0
2019-03-18T03:03:23.898Z,0
2019-03-18T03:04:23.875Z,0
2019-03-18T03:05:23.869Z,0
2019-03-18T03:06:23.885Z,0
2019-03-18T03:07:23.582Z,0
2019-03-18T03:08:23.810Z,0
2019-03-18T03:09:23.533Z,0
2019-03-18T03:10:23.773Z,0
2019-03-18T03:11:23.750Z,0
2019-03-18T03:12:23.727Z,0
2019-03-18T03:13:23.703Z,0
2019-03-18T03:14:23.698Z,0
2019-03-18T03:15:23.696Z,0
2019-03-18T03:16:33.385Z,0
2019-03-18T03:17:26.602Z,0
2019-03-18T03:18:23.628Z,0
2019-03-18T03:19:23.612Z,0
2019-03-18T03:20:23.326Z,0
2019-03-18T03:21:23.575Z,0
2019-03-18T03:22:23.542Z,0
2019-03-18T03:23:23.525Z,0
2019-03-18T03:24:23.521Z,0
2019-03-18T03:25:27.319Z,0
2019-03-18T03:26:23.229Z,0
2019-03-18T03:27:23.451Z,0
2019-03-18T03:28:23.196Z,0
2019-03-18T03:29:23.414Z,0
2019-03-18T03:30:23.408Z,0
2019-03-18T03:31:23.231Z,0
2019-03-18T03:32:23.135Z,0
2019-03-18T03:33:23.176Z,0
2019-03-18T03:34:23.346Z,0
2019-03-18T03:35:23.337Z,0
2019-03-18T03:36:23.037Z,0
2019-03-18T03:37:23.277Z,0
2019-03-18T03:38:23.253Z,0
2019-03-18T03:39:23.006Z,0
2019-03-18T03:40:23.228Z,0
2019-03-18T03:41:25.552Z,0
2019-03-18T03:42:22.932Z,0
2019-03-18T03:43:23.176Z,0
2019-03-18T03:44:23.139Z,0
2019-03-18T03:45:23.186Z,0
2019-03-18T03:46:23.107Z,0
2019-03-18T03:47:23.107Z,0
2019-03-18T03:48:23.081Z,0
2019-03-18T03:49:23.052Z,0
2019-03-18T03:50:23.043Z,0
2019-03-18T03:51:23.012Z,0
2019-03-18T03:52:22.988Z,0
2019-03-18T03:53:23.004Z,0
2019-03-18T03:54:22.982Z,0
2019-03-18T03:55:22.954Z,0
2019-03-18T03:56:23.009Z,0
2019-03-18T03:57:22.655Z,0
2019-03-18T03:58:22.890Z,0
2019-03-18T03:59:22.883Z,0
2019-03-18T04:00:22.846Z,0
2019-03-18T04:01:22.828Z,0
2019-03-18T04:02:22.812Z,0
2019-03-18T04:03:37.520Z,0
2019-03-18T04:04:22.780Z,0
2019-03-18T04:05:22.762Z,0
2019-03-18T04:06:22.481Z,0
2019-03-18T04:07:22.729Z,0
2019-03-18T04:08:22.706Z,0
2019-03-18T04:09:22.686Z,0
2019-03-18T04:10:22.704Z,0
2019-03-18T04:11:22.690Z,0
2019-03-18T04:12:22.633Z,0
2019-03-18T04:13:22.393Z,0
2019-03-18T04:14:22.648Z,0
2019-03-18T04:15:22.621Z,0
2019-03-18T04:16:22.321Z,0
2019-03-18T04:17:22.532Z,0
2019-03-18T04:18:22.276Z,0
2019-03-18T04:19:22.527Z,0
2019-03-18T04:20:22.490Z,0
2019-03-18T04:21:22.242Z,0
2019-03-18T04:22:22.445Z,0
2019-03-18T04:23:22.420Z,0
2019-03-18T04:24:22.420Z,0
2019-03-18T04:25:22.495Z,0
2019-03-18T04:26:22.131Z,0
2019-03-18T04:27:24.707Z,0
2019-03-18T04:28:22.096Z,0
2019-03-18T04:29:22.059Z,0
2019-03-18T04:30:22.396Z,0
2019-03-18T04:31:22.276Z,0
2019-03-18T04:32:22.252Z,0
2019-03-18T04:33:22.262Z,0
2019-03-18T04:34:22.232Z,0
2019-03-18T04:35:21.978Z,0
2019-03-18T04:36:21.941Z,0
2019-03-18T04:37:21.914Z,0
2019-03-18T04:38:22.167Z,0
2019-03-18T04:39:22.116Z,0
2019-03-18T04:40:22.180Z,0
2019-03-18T04:41:21.828Z,0
2019-03-18T04:42:21.565Z,0
2019-03-18T04:43:21.546Z,0
2019-03-18T04:44:22.022Z,0
2019-03-18T04:45:21.515Z,0
2019-03-18T04:46:21.745Z,0
2019-03-18T04:47:21.975Z,0
2019-03-18T04:48:21.701Z,0
2019-03-18T04:49:21.939Z,0
2019-03-18T04:50:21.924Z,0
2019-03-18T04:51:21.651Z,0
2019-03-18T04:52:21.880Z,0
2019-03-18T04:53:21.617Z,0
2019-03-18T04:54:21.833Z,4
2019-03-18T04:55:21.818Z,0
2019-03-18T04:56:21.797Z,4
2019-03-18T04:57:21.545Z,4
2019-03-18T04:58:21.777Z,4
2019-03-18T04:59:21.747Z,4
2019-03-18T05:00:21.750Z,4
2019-03-18T05:01:21.467Z,8
2019-03-18T05:02:23.991Z,4
2019-03-18T05:03:21.697Z,8
2019-03-18T05:04:21.662Z,8
2019-03-18T05:05:21.644Z,12
2019-03-18T05:06:21.640Z,12
2019-03-18T05:07:21.603Z,16
2019-03-18T05:08:21.589Z,24
2019-03-18T05:09:21.323Z,28
2019-03-18T05:10:21.550Z,32
2019-03-18T05:11:21.532Z,40
2019-03-18T05:12:21.266Z,44
2019-03-18T05:13:21.488Z,52
2019-03-18T05:14:21.560Z,60
2019-03-18T05:15:21.456Z,68
2019-03-18T05:16:21.443Z,72
2019-03-18T05:17:33.003Z,80
2019-03-18T05:18:21.408Z,84
2019-03-18T05:19:21.395Z,92
2019-03-18T05:20:21.371Z,96
2019-03-18T05:21:21.352Z,92
2019-03-18T05:22:21.321Z,92
2019-03-18T05:23:21.312Z,96
2019-03-18T05:24:21.046Z,92
2019-03-18T05:25:21.032Z,96
2019-03-18T05:26:22.431Z,116
2019-03-18T05:27:21.244Z,132
2019-03-18T05:28:21.231Z,136
2019-03-18T05:29:20.956Z,156
2019-03-18T05:30:21.186Z,200
2019-03-18T05:31:21.171Z,240
2019-03-18T05:32:20.901Z,268
2019-03-18T05:33:21.134Z,288
2019-03-18T05:34:20.871Z,324
2019-03-18T05:35:20.847Z,372
2019-03-18T05:36:21.103Z,392
2019-03-18T05:37:20.818Z,396
2019-03-18T05:38:21.039Z,420
2019-03-18T05:39:21.030Z,460
2019-03-18T05:40:21.018Z,496
2019-03-18T05:41:21.008Z,472
2019-03-18T05:42:20.721Z,456
2019-03-18T05:43:20.950Z,440
2019-03-18T05:44:20.945Z,432
2019-03-18T05:45:20.680Z,484
2019-03-18T05:46:20.412Z,508
2019-03-18T05:47:20.648Z,416
2019-03-18T05:48:20.875Z,280
2019-03-18T05:49:20.600Z,400
2019-03-18T05:50:20.832Z,480
2019-03-18T05:51:20.804Z,520
2019-03-18T05:52:20.784Z,500
2019-03-18T05:53:20.768Z,620
2019-03-18T05:54:20.755Z,680
2019-03-18T05:55:20.741Z,712
2019-03-18T05:56:20.732Z,772
2019-03-18T05:57:20.704Z,796
2019-03-18T05:58:20.680Z,820
2019-03-18T05:59:20.679Z,864
2019-03-18T06:00:20.160Z,924
2019-03-18T06:01:20.639Z,940
2019-03-18T06:02:20.614Z,1016
2019-03-18T06:03:20.657Z,1008
2019-03-18T06:04:20.578Z,1064
2019-03-18T06:05:20.591Z,1104
2019-03-18T06:06:20.535Z,1156
2019-03-18T06:07:20.521Z,1236
2019-03-18T06:08:20.507Z,1236
2019-03-18T06:09:20.489Z,1056
2019-03-18T06:10:20.222Z,1088
2019-03-18T06:11:20.446Z,1204
2019-03-18T06:12:20.440Z,1408
2019-03-18T06:13:20.419Z,1348
2019-03-18T06:14:19.920Z,1496
2019-03-18T06:15:20.375Z,1624
2019-03-18T06:16:20.368Z,1748
2019-03-18T06:17:20.346Z,1760
2019-03-18T06:18:20.076Z,1664
2019-03-18T06:19:20.066Z,1544
2019-03-18T06:20:20.289Z,1972
2019-03-18T06:21:20.297Z,2360
2019-03-18T06:22:20.254Z,2596
2019-03-18T06:23:19.985Z,2664
2019-03-18T06:24:20.224Z,2860
2019-03-18T06:25:20.206Z,3188
2019-03-18T06:26:20.175Z,2924
2019-03-18T06:27:20.188Z,2700
2019-03-18T06:28:19.902Z,3100
2019-03-18T06:29:20.134Z,3112
2019-03-18T06:30:19.899Z,3268
2019-03-18T06:31:19.853Z,3916
2019-03-18T06:32:20.070Z,3952
2019-03-18T06:33:19.813Z,3300
2019-03-18T06:34:20.121Z,2740
2019-03-18T06:35:22.969Z,2448
2019-03-18T06:36:20.007Z,2452
2019-03-18T06:37:19.986Z,2700
2019-03-18T06:38:19.970Z,3808
2019-03-18T06:39:19.946Z,4756
2019-03-18T06:40:19.693Z,5348
2019-03-18T06:41:19.917Z,5200
2019-03-18T06:42:21.235Z,4560
2019-03-18T06:43:19.937Z,3792
2019-03-18T06:44:19.614Z,3548
2019-03-18T06:45:19.850Z,3356
2019-03-18T06:46:19.831Z,3208
2019-03-18T06:47:19.801Z,2828
2019-03-18T06:48:19.806Z,2676
2019-03-18T06:49:19.781Z,2592
2019-03-18T06:50:19.770Z,2276
2019-03-18T06:51:19.743Z,2288
2019-03-18T06:52:19.729Z,2168
2019-03-18T06:53:19.711Z,2448
2019-03-18T06:54:19.695Z,2820
2019-03-18T06:55:19.745Z,2860
2019-03-18T06:56:19.672Z,3092
2019-03-18T06:57:19.390Z,2960
2019-03-18T06:58:19.385Z,2776
2019-03-18T06:59:19.607Z,3572
2019-03-18T07:00:19.351Z,4968
2019-03-18T07:01:19.322Z,5660
2019-03-18T07:02:19.550Z,5752
2019-03-18T07:03:19.569Z,5056
2019-03-18T07:04:19.516Z,3608
2019-03-18T07:05:19.500Z,3152
2019-03-18T07:06:19.481Z,3048
2019-03-18T07:07:19.467Z,2892
2019-03-18T07:08:19.453Z,3020
2019-03-18T07:09:19.429Z,4204
2019-03-18T07:10:19.176Z,5632
2019-03-18T07:11:19.434Z,6276
2019-03-18T07:12:19.379Z,7484
2019-03-18T07:13:19.369Z,5772
2019-03-18T07:14:19.346Z,5272
2019-03-18T07:15:19.110Z,5388
2019-03-18T07:16:19.311Z,5332
2019-03-18T07:17:19.053Z,6588
2019-03-18T07:18:25.570Z,4808
2019-03-18T07:19:19.263Z,4916
2019-03-18T07:20:19.267Z,4764
2019-03-18T07:21:21.917Z,4528
2019-03-18T07:22:18.959Z,4172
2019-03-18T07:23:18.939Z,5644
2019-03-18T07:24:18.684Z,5356
2019-03-18T07:25:19.155Z,5280
2019-03-18T07:26:19.148Z,6248
2019-03-18T07:27:18.878Z,7528
2019-03-18T07:28:20.609Z,6332
2019-03-18T07:29:19.144Z,6572
2019-03-18T07:30:19.077Z,6360
2019-03-18T07:31:19.059Z,5344
2019-03-18T07:32:18.793Z,4676
2019-03-18T07:33:18.786Z,5540
2019-03-18T07:34:18.763Z,5644
2019-03-18T07:35:18.998Z,5536
2019-03-18T07:36:18.975Z,4876
2019-03-18T07:37:18.992Z,3960
2019-03-18T07:38:18.947Z,4120
2019-03-18T07:39:18.922Z,3376
2019-03-18T07:40:18.983Z,5660
2019-03-18T07:41:18.886Z,5464
2019-03-18T07:42:18.622Z,3300
2019-03-18T07:43:18.607Z,3368
2019-03-18T07:44:18.599Z,7260
2019-03-18T07:45:20.809Z,5004
2019-03-18T07:46:18.810Z,4724
2019-03-18T07:47:18.810Z,4576
2019-03-18T07:48:32.503Z,3060
2019-03-18T07:49:18.767Z,2452
2019-03-18T07:50:18.763Z,2528
2019-03-18T07:51:18.728Z,2936
2019-03-18T07:52:21.647Z,2996
2019-03-18T07:53:20.740Z,3116
2019-03-18T07:54:18.672Z,4168
2019-03-18T07:55:18.657Z,5220
2019-03-18T07:56:18.652Z,4164
2019-03-18T07:57:18.622Z,3972
2019-03-18T07:58:18.378Z,3636
2019-03-18T07:59:18.589Z,3632
2019-03-18T08:00:18.581Z,4204
2019-03-18T08:01:18.554Z,3952
2019-03-18T08:02:18.541Z,4952
2019-03-18T08:03:18.551Z,5680
2019-03-18T08:04:18.516Z,7968
2019-03-18T08:05:18.489Z,6716
2019-03-18T08:06:18.477Z,4672
2019-03-18T08:07:18.460Z,3096
2019-03-18T08:08:18.230Z,3068
2019-03-18T08:09:18.430Z,3620
2019-03-18T08:10:18.496Z,3736
2019-03-18T08:11:18.399Z,4776
2019-03-18T08:12:18.374Z,6148
2019-03-18T08:13:18.361Z,5288
2019-03-18T08:14:20.802Z,4116
2019-03-18T08:15:17.849Z,3252
2019-03-18T08:16:18.066Z,2960
2019-03-18T08:17:18.294Z,3556
2019-03-18T08:18:18.275Z,2648
2019-03-18T08:19:18.258Z,2776
2019-03-18T08:20:17.751Z,3100
2019-03-18T08:21:18.222Z,2960
2019-03-18T08:22:18.215Z,4180
2019-03-18T08:23:18.193Z,4540
2019-03-18T08:24:18.182Z,3572
2019-03-18T08:25:18.161Z,5932
2019-03-18T08:26:18.143Z,5928
2019-03-18T08:27:18.135Z,8912
2019-03-18T08:28:18.116Z,9172
2019-03-18T08:29:18.094Z,9248
2019-03-18T08:30:17.830Z,8460
2019-03-18T08:31:18.060Z,8708
2019-03-18T08:32:19.110Z,9340
2019-03-18T08:33:18.049Z,8436
2019-03-18T08:34:17.767Z,9004
2019-03-18T08:35:17.894Z,9856
2019-03-18T08:36:17.983Z,9796
2019-03-18T08:37:17.730Z,8108
2019-03-18T08:38:17.959Z,9404
2019-03-18T08:39:17.989Z,12264
2019-03-18T08:40:17.932Z,10024
2019-03-18T08:41:17.920Z,9992
2019-03-18T08:42:17.896Z,10128
2019-03-18T08:43:17.870Z,8236
2019-03-18T08:44:17.610Z,6284
2019-03-18T08:45:17.601Z,5296
2019-03-18T08:46:17.831Z,6028
2019-03-18T08:47:17.568Z,6476
2019-03-18T08:48:17.885Z,8820
2019-03-18T08:49:17.544Z,11096
2019-03-18T08:50:19.227Z,12340
2019-03-18T08:51:17.753Z,10832
2019-03-18T08:52:17.491Z,8552
2019-03-18T08:53:17.725Z,7048
2019-03-18T08:54:17.707Z,8252
2019-03-18T08:55:17.770Z,9888
2019-03-18T08:56:17.674Z,11052
2019-03-18T08:57:17.269Z,10976
2019-03-18T08:58:17.658Z,10532
2019-03-18T08:59:17.651Z,9948
2019-03-18T09:00:17.620Z,9832
2019-03-18T09:01:17.620Z,10020
2019-03-18T09:02:17.608Z,8624
2019-03-18T09:03:17.361Z,6732
2019-03-18T09:04:17.564Z,6020
2019-03-18T09:05:17.561Z,6016
2019-03-18T09:06:17.575Z,5524
2019-03-18T09:07:17.568Z,5072
2019-03-18T09:08:17.509Z,5292
2019-03-18T09:09:17.512Z,6156
2019-03-18T09:10:17.484Z,7416
2019-03-18T09:11:17.241Z,7088
2019-03-18T09:12:17.579Z,6592
2019-03-18T09:13:17.426Z,7172
2019-03-18T09:14:17.422Z,6964
2019-03-18T09:15:17.159Z,6324
2019-03-18T09:16:17.385Z,5760
2019-03-18T09:17:17.366Z,5960
2019-03-18T09:18:17.357Z,5992
2019-03-18T09:19:17.336Z,5372
2019-03-18T09:20:17.385Z,5952
2019-03-18T09:21:17.310Z,6088
2019-03-18T09:22:17.292Z,6924
2019-03-18T09:23:17.296Z,7168
2019-03-18T09:24:17.264Z,7100
2019-03-18T09:25:16.752Z,7360
2019-03-18T09:26:16.997Z,7508
2019-03-18T09:27:17.219Z,7532
2019-03-18T09:28:16.968Z,7652
2019-03-18T09:29:17.186Z,7884
2019-03-18T09:30:17.169Z,8264
2019-03-18T09:31:17.466Z,8064
2019-03-18T09:32:17.148Z,7624
2019-03-18T09:33:17.126Z,7840
2019-03-18T09:34:17.113Z,8680
2019-03-18T09:35:17.097Z,9236
2019-03-18T09:36:17.076Z,9148
2019-03-18T09:37:16.823Z,8448
2019-03-18T09:38:16.812Z,8052
2019-03-18T09:39:17.040Z,7852
2019-03-18T09:40:17.022Z,7816
2019-03-18T09:41:17.074Z,7728
2019-03-18T09:42:18.072Z,8068
2019-03-18T09:43:16.968Z,7676
2019-03-18T09:44:16.964Z,6844
2019-03-18T09:45:16.944Z,5924
2019-03-18T09:46:16.932Z,5932
2019-03-18T09:47:16.913Z,6156
2019-03-18T09:48:16.662Z,6040
2019-03-18T09:49:28.492Z,5876
2019-03-18T09:50:16.884Z,6452
2019-03-18T09:51:16.971Z,7248
2019-03-18T09:52:16.837Z,7680
2019-03-18T09:53:16.980Z,8108
2019-03-18T09:54:16.807Z,7236
2019-03-18T09:55:16.551Z,6524
2019-03-18T09:56:16.778Z,6136
2019-03-18T09:57:28.331Z,5896
2019-03-18T09:58:16.494Z,6708
2019-03-18T09:59:16.243Z,7808
2019-03-18T10:00:19.195Z,8672
2019-03-18T10:01:16.702Z,7824
2019-03-18T10:02:16.436Z,6776
2019-03-18T10:03:16.676Z,9036
2019-03-18T10:04:16.406Z,12152
2019-03-18T10:05:16.639Z,12896
2019-03-18T10:06:16.626Z,12540
2019-03-18T10:07:16.388Z,11888
2019-03-18T10:08:16.600Z,11260
2019-03-18T10:09:16.587Z,10512
2019-03-18T10:10:16.324Z,9600
2019-03-18T10:11:16.551Z,8804
2019-03-18T10:12:16.540Z,7732
2019-03-18T10:13:16.526Z,6224
2019-03-18T10:14:17.400Z,5788
2019-03-18T10:15:16.496Z,5020
2019-03-18T10:16:16.477Z,4308
2019-03-18T10:17:17.334Z,5288
2019-03-18T10:18:16.451Z,5792
2019-03-18T10:19:16.433Z,5064
2019-03-18T10:20:16.427Z,4892
2019-03-18T10:21:16.402Z,5172
2019-03-18T10:22:16.393Z,5812
2019-03-18T10:23:16.133Z,5540
2019-03-18T10:24:16.362Z,4952
2019-03-18T10:25:16.360Z,4480
2019-03-18T10:26:16.331Z,4544
2019-03-18T10:27:16.314Z,5012
2019-03-18T10:28:18.905Z,5172
2019-03-18T10:29:16.360Z,5488
2019-03-18T10:30:16.035Z,7060
2019-03-18T10:31:15.767Z,8072
2019-03-18T10:32:16.248Z,7600
2019-03-18T10:33:16.235Z,6204
2019-03-18T10:34:16.361Z,5196
2019-03-18T10:35:16.201Z,4672
2019-03-18T10:36:15.941Z,4788
2019-03-18T10:37:16.168Z,4588
2019-03-18T10:38:15.910Z,3876
2019-03-18T10:39:15.645Z,4092
2019-03-18T10:40:15.877Z,4128
2019-03-18T10:41:15.867Z,3772
2019-03-18T10:42:16.160Z,3320
2019-03-18T10:43:16.082Z,4028
2019-03-18T10:44:16.066Z,4568
2019-03-18T10:45:16.062Z,4620
2019-03-18T10:46:16.037Z,5144
2019-03-18T10:47:16.017Z,4956
2019-03-18T10:48:15.783Z,4520
2019-03-18T10:49:15.985Z,4484
2019-03-18T10:50:15.981Z,4028
2019-03-18T10:51:15.958Z,3884
2019-03-18T10:52:16.025Z,4060
2019-03-18T10:53:15.697Z,4548
2019-03-18T10:54:16.009Z,4128
2019-03-18T10:55:15.715Z,4144
2019-03-18T10:56:15.891Z,5256
2019-03-18T10:57:15.901Z,5968
2019-03-18T10:58:17.938Z,6200
2019-03-18T10:59:15.833Z,7220
2019-03-18T11:00:15.817Z,8060
2019-03-18T11:01:15.804Z,7428
2019-03-18T11:02:15.790Z,6496
2019-03-18T11:03:15.783Z,5656
2019-03-18T11:04:15.759Z,6412
2019-03-18T11:05:15.505Z,7320
2019-03-18T11:06:15.737Z,7968
2019-03-18T11:07:15.719Z,8188
2019-03-18T11:08:15.806Z,8444
2019-03-18T11:09:15.684Z,7628
2019-03-18T11:10:17.497Z,7452
2019-03-18T11:11:15.682Z,8472
2019-03-18T11:12:15.661Z,8208
2019-03-18T11:13:15.711Z,8160
2019-03-18T11:14:15.616Z,9320
2019-03-18T11:15:15.592Z,10988
2019-03-18T11:16:15.579Z,10700
2019-03-18T11:17:15.325Z,10744
2019-03-18T11:18:15.304Z,11040
2019-03-18T11:19:15.532Z,11628
2019-03-18T11:20:15.519Z,11680
2019-03-18T11:21:15.501Z,10940
2019-03-18T11:22:15.485Z,10596
2019-03-18T11:23:15.483Z,10204
2019-03-18T11:24:15.459Z,10404
2019-03-18T11:25:15.450Z,10156
2019-03-18T11:26:15.493Z,10836
2019-03-18T11:27:15.416Z,12192
2019-03-18T11:28:15.409Z,11296
2019-03-18T11:29:15.144Z,10840
2019-03-18T11:30:15.388Z,11308
2019-03-18T11:31:15.368Z,10212
2019-03-18T11:32:15.101Z,10176
2019-03-18T11:33:15.330Z,10704
2019-03-18T11:34:15.071Z,11812
2019-03-18T11:35:15.069Z,11872
2019-03-18T11:36:15.291Z,10956
2019-03-18T11:37:15.271Z,9896
2019-03-18T11:38:15.268Z,10392
2019-03-18T11:39:15.259Z,10152
2019-03-18T11:40:15.239Z,8660
2019-03-18T11:41:17.348Z,9180
2019-03-18T11:42:14.965Z,10176
2019-03-18T11:43:15.196Z,7936
2019-03-18T11:44:15.197Z,6332
2019-03-18T11:45:15.538Z,6700
2019-03-18T11:46:15.158Z,9232
2019-03-18T11:47:15.136Z,10716
2019-03-18T11:48:14.888Z,11088
2019-03-18T11:49:15.112Z,9616
2019-03-18T11:50:18.577Z,10456
2019-03-18T11:51:15.082Z,11168
2019-03-18T11:52:15.063Z,13144
2019-03-18T11:53:21.193Z,14016
2019-03-18T11:54:15.190Z,15032
2019-03-18T11:55:15.050Z,14076
2019-03-18T11:56:15.005Z,12376
2019-03-18T11:57:14.749Z,10460
2019-03-18T11:58:15.003Z,7488
2019-03-18T11:59:14.735Z,7032
2019-03-18T12:00:14.955Z,6620
2019-03-18T12:01:14.944Z,5304
2019-03-18T12:02:26.883Z,3644
2019-03-18T12:03:14.915Z,3340
2019-03-18T12:04:14.656Z,3604
2019-03-18T12:05:14.897Z,4300
2019-03-18T12:06:14.881Z,5216
2019-03-18T12:07:14.866Z,6428
2019-03-18T12:08:14.859Z,6840
2019-03-18T12:09:15.136Z,7604
2019-03-18T12:10:14.821Z,7784
2019-03-18T12:11:14.813Z,7760
2019-03-18T12:12:15.894Z,7196
2019-03-18T12:13:14.598Z,6968
2019-03-18T12:14:14.516Z,7528
2019-03-18T12:15:14.754Z,6580
2019-03-18T12:16:14.744Z,6544
2019-03-18T12:17:14.479Z,5028
2019-03-18T12:18:14.718Z,5172
2019-03-18T12:19:14.458Z,5184
2019-03-18T12:20:28.549Z,4852
2019-03-18T12:21:15.973Z,5368
2019-03-18T12:22:14.661Z,4868
2019-03-18T12:23:14.639Z,4636
2019-03-18T12:24:14.629Z,4988
2019-03-18T12:25:14.611Z,6168
2019-03-18T12:26:14.594Z,7256
2019-03-18T12:27:14.341Z,6868
2019-03-18T12:28:14.568Z,6584
2019-03-18T12:29:14.561Z,5172
2019-03-18T12:30:14.537Z,3392
2019-03-18T12:31:14.528Z,2588
2019-03-18T12:32:14.523Z,2344
2019-03-18T12:33:14.503Z,2492
2019-03-18T12:34:14.490Z,2808
2019-03-18T12:35:14.484Z,2636
2019-03-18T12:36:14.469Z,2492
2019-03-18T12:37:14.463Z,3028
2019-03-18T12:38:14.432Z,2676
2019-03-18T12:39:14.422Z,2636
2019-03-18T12:40:14.400Z,2676
2019-03-18T12:41:14.394Z,3000
2019-03-18T12:42:14.404Z,2536
2019-03-18T12:43:14.364Z,3036
2019-03-18T12:44:14.098Z,3832
2019-03-18T12:45:16.138Z,4564
2019-03-18T12:46:14.322Z,4680
2019-03-18T12:47:14.318Z,5648
2019-03-18T12:48:14.037Z,5632
2019-03-18T12:49:14.272Z,5972
2019-03-18T12:50:14.261Z,6300
2019-03-18T12:51:14.244Z,5756
2019-03-18T12:52:13.982Z,5668
2019-03-18T12:53:13.966Z,6168
2019-03-18T12:54:14.192Z,6328
2019-03-18T12:55:14.218Z,6612
2019-03-18T12:56:13.755Z,6600
2019-03-18T12:57:14.154Z,7052
2019-03-18T12:58:14.139Z,8428
2019-03-18T12:59:14.120Z,10424
2019-03-18T13:00:14.125Z,11128
2019-03-18T13:01:19.654Z,10192
2019-03-18T13:02:14.081Z,8688
2019-03-18T13:03:13.895Z,7096
2019-03-18T13:04:13.809Z,6812
2019-03-18T13:05:14.056Z,8324
2019-03-18T13:06:14.031Z,8984
2019-03-18T13:07:13.761Z,9140
2019-03-18T13:08:13.759Z,8576
2019-03-18T13:09:13.737Z,7144
2019-03-18T13:10:13.973Z,5932
2019-03-18T13:11:13.965Z,5376
2019-03-18T13:12:15.750Z,5188
2019-03-18T13:13:13.949Z,5312
2019-03-18T13:14:13.922Z,5836
2019-03-18T13:15:13.660Z,5716
2019-03-18T13:16:13.947Z,5948
2019-03-18T13:17:13.925Z,6752
2019-03-18T13:18:13.914Z,8212
2019-03-18T13:19:13.934Z,8212
2019-03-18T13:20:13.922Z,7548
2019-03-18T13:21:15.038Z,5624
2019-03-18T13:22:13.951Z,4956
2019-03-18T13:23:13.930Z,4356
2019-03-18T13:24:13.907Z,4464
2019-03-18T13:25:13.689Z,4732
2019-03-18T13:26:13.916Z,4148
2019-03-18T13:27:13.906Z,4028
2019-03-18T13:28:13.898Z,4408
2019-03-18T13:29:13.883Z,4768
2019-03-18T13:30:15.360Z,5340
2019-03-18T13:31:13.617Z,5560
2019-03-18T13:32:13.838Z,5864
2019-03-18T13:33:13.826Z,6020
2019-03-18T13:34:13.577Z,5064
2019-03-18T13:35:13.561Z,3856
2019-03-18T13:36:13.785Z,3012
2019-03-18T13:37:13.526Z,2564
2019-03-18T13:38:13.759Z,2288
2019-03-18T13:39:13.808Z,2256
2019-03-18T13:40:13.728Z,2584
2019-03-18T13:41:13.725Z,2460
2019-03-18T13:42:13.697Z,2260
2019-03-18T13:43:13.708Z,2392
2019-03-18T13:44:13.689Z,2432
2019-03-18T13:45:13.661Z,2556
2019-03-18T13:46:13.400Z,2980
2019-03-18T13:47:13.642Z,3728
2019-03-18T13:48:13.609Z,4072
2019-03-18T13:49:15.841Z,4088